Главная страница
METAR-TAF:

METAR-TAF

Аэропорты :

Нальчик, Россия

широта: 43-30-46N, долгота: 043-38-12E, высота над уровнем моря: 445 м

Текущие метеонаблюдения

Эта сводка был подготовлена 1 час и 8 минут назад, в 01:00 UTC
Ветер 4 Узел от юго-западный
Температура 10°C
Влажность 62%
Давление 1025 hPa
Видимость 10 км и более

METAR: URMN 160100Z 22002MPS 9999 NSC 10/03 Q1025 R24/////// NOSIG RMK QFE732

Время: 05:08 (02:08 UTC)

Прогноз

Эта сводка был подготовлена 3 часа и 8 минут назад, в 23:00 UTC
Прогноз действительный с 16-го 00 UTC до 16-го 09 UTC
Ветер 6 Узел от западный-юго-западный
Видимость 10 км и более
Рассеянная облачность на высоте 2000 фута
временами
С 16-го 00 UTC до 16-го 06 UTC
Видимость: 3100 м
Рассеянная облачность на высоте 1100 фута
дымка

TAF: URMN 152300Z 1600/1609 24003MPS 9999 BKN020 TEMPO 1600/1606 3100 BR BKN011

Метеонаблюдения и прогнозы для более 4000 аэропортов (сводки METAR и TAF).

Имеющиеся станции представлены на карте желтыми и красными точками.

Чтобы увидеть название станции, наведите на нее мышь.

Затем щелкните, чтобы увидеть метеонаблюдения и метеопрогнозы.

Управление картой: чтобы увеличить масштаб, щелкните зеленые кнопки с черным крестиком; чтобы уменьшить масштаб, щелкните зеленую кнопку с тире; для просмотра соседних карт щелкайте зеленые стрелки.


METAR-TAF: